sensor_id;sensor_type;location;lat;lon;timestamp;pressure;altitude;pressure_sealevel;temperature;humidity
35918;BME280;22011;59.912;30.300;2022-08-06T00:00:17;101527.41;;;23.88;65.52
35918;BME280;22011;59.912;30.300;2022-08-06T00:02:46;101524.19;;;23.91;65.38
35918;BME280;22011;59.912;30.300;2022-08-06T00:05:14;101530.13;;;23.88;65.50
35918;BME280;22011;59.912;30.300;2022-08-06T00:07:41;101531.66;;;23.84;65.43
35918;BME280;22011;59.912;30.300;2022-08-06T00:10:09;101528.34;;;23.82;65.68
35918;BME280;22011;59.912;30.300;2022-08-06T00:12:36;101523.34;;;23.78;65.60
35918;BME280;22011;59.912;30.300;2022-08-06T00:15:06;101519.34;;;23.81;65.82
35918;BME280;22011;59.912;30.300;2022-08-06T00:17:34;101520.16;;;23.82;65.45
35918;BME280;22011;59.912;30.300;2022-08-06T00:20:04;101526.69;;;23.80;66.27
35918;BME280;22011;59.912;30.300;2022-08-06T00:22:32;101507.97;;;23.72;66.00
35918;BME280;22011;59.912;30.300;2022-08-06T00:24:59;101512.59;;;23.72;65.99
35918;BME280;22011;59.912;30.300;2022-08-06T00:27:27;101510.91;;;23.71;66.05
35918;BME280;22011;59.912;30.300;2022-08-06T00:29:54;101509.63;;;23.73;65.95
35918;BME280;22011;59.912;30.300;2022-08-06T00:32:22;101509.25;;;23.70;65.69
35918;BME280;22011;59.912;30.300;2022-08-06T00:34:49;101506.78;;;23.68;65.99
35918;BME280;22011;59.912;30.300;2022-08-06T00:37:18;101503.72;;;23.76;65.26
35918;BME280;22011;59.912;30.300;2022-08-06T00:39:46;101497.34;;;23.83;65.17
35918;BME280;22011;59.912;30.300;2022-08-06T00:42:14;101511.28;;;23.74;65.50
35918;BME280;22011;59.912;30.300;2022-08-06T00:44:41;101498.28;;;23.76;65.44
35918;BME280;22011;59.912;30.300;2022-08-06T00:47:09;101495.44;;;23.71;65.82
35918;BME280;22011;59.912;30.300;2022-08-06T00:49:36;101507.38;;;23.70;65.76
35918;BME280;22011;59.912;30.300;2022-08-06T00:52:04;101499.91;;;23.66;65.81
35918;BME280;22011;59.912;30.300;2022-08-06T00:54:33;101503.69;;;23.65;66.24
35918;BME280;22011;59.912;30.300;2022-08-06T00:57:01;101503.34;;;23.61;65.89
35918;BME280;22011;59.912;30.300;2022-08-06T00:59:28;101500.59;;;23.61;65.84
35918;BME280;22011;59.912;30.300;2022-08-06T01:01:56;101498.13;;;23.60;65.93
35918;BME280;22011;59.912;30.300;2022-08-06T01:04:24;101491.84;;;23.59;65.97
35918;BME280;22011;59.912;30.300;2022-08-06T01:06:51;101488.91;;;23.61;65.79
35918;BME280;22011;59.912;30.300;2022-08-06T01:09:19;101489.72;;;23.61;65.79
35918;BME280;22011;59.912;30.300;2022-08-06T01:11:48;101486.41;;;23.59;66.17
35918;BME280;22011;59.912;30.300;2022-08-06T01:14:15;101483.94;;;23.58;65.82
35918;BME280;22011;59.912;30.300;2022-08-06T01:16:46;101489.97;;;23.60;66.23
35918;BME280;22011;59.912;30.300;2022-08-06T01:19:38;101472.47;;;23.67;66.24
35918;BME280;22011;59.912;30.300;2022-08-06T01:22:16;101479.22;;;23.65;66.09
35918;BME280;22011;59.912;30.300;2022-08-06T01:25:10;101472.59;;;23.72;66.04
35918;BME280;22011;59.912;30.300;2022-08-06T01:27:44;101481.81;;;23.60;66.15
35918;BME280;22011;59.912;30.300;2022-08-06T01:30:16;101476.22;;;23.55;66.20
35918;BME280;22011;59.912;30.300;2022-08-06T01:32:48;101474.78;;;23.52;66.32
35918;BME280;22011;59.912;30.300;2022-08-06T01:35:21;101469.34;;;23.52;66.33
35918;BME280;22011;59.912;30.300;2022-08-06T01:37:58;101473.72;;;23.53;66.41
35918;BME280;22011;59.912;30.300;2022-08-06T01:40:30;101472.28;;;23.51;66.37
35918;BME280;22011;59.912;30.300;2022-08-06T01:43:02;101463.75;;;23.47;66.23
35918;BME280;22011;59.912;30.300;2022-08-06T01:45:32;101462.94;;;23.46;66.35
35918;BME280;22011;59.912;30.300;2022-08-06T01:48:02;101465.19;;;23.49;65.96
35918;BME280;22011;59.912;30.300;2022-08-06T01:50:34;101457.25;;;23.48;66.13
35918;BME280;22011;59.912;30.300;2022-08-06T01:53:04;101448.97;;;23.43;66.18
35918;BME280;22011;59.912;30.300;2022-08-06T01:55:39;101461.88;;;23.47;66.48
35918;BME280;22011;59.912;30.300;2022-08-06T02:00:40;101457.63;;;23.52;66.06
35918;BME280;22011;59.912;30.300;2022-08-06T02:03:24;101453.78;;;23.59;65.95
35918;BME280;22011;59.912;30.300;2022-08-06T02:05:55;101459.84;;;23.43;66.25
35918;BME280;22011;59.912;30.300;2022-08-06T02:08:27;101456.81;;;23.51;66.13
35918;BME280;22011;59.912;30.300;2022-08-06T02:10:57;101450.63;;;23.44;65.84
35918;BME280;22011;59.912;30.300;2022-08-06T02:13:30;101444.72;;;23.47;66.33
35918;BME280;22011;59.912;30.300;2022-08-06T02:16:01;101452.75;;;23.42;66.00
35918;BME280;22011;59.912;30.300;2022-08-06T02:18:33;101444.97;;;23.45;66.16
35918;BME280;22011;59.912;30.300;2022-08-06T02:21:06;101439.75;;;23.44;66.19
35918;BME280;22011;59.912;30.300;2022-08-06T02:23:35;101445.31;;;23.37;66.04
35918;BME280;22011;59.912;30.300;2022-08-06T02:26:04;101434.44;;;23.37;65.99
35918;BME280;22011;59.912;30.300;2022-08-06T02:28:36;101439.53;;;23.45;66.34
35918;BME280;22011;59.912;30.300;2022-08-06T02:31:05;101440.69;;;23.38;65.92
35918;BME280;22011;59.912;30.300;2022-08-06T02:33:33;101447.31;;;23.42;66.20
35918;BME280;22011;59.912;30.300;2022-08-06T02:36:03;101435.03;;;23.51;66.13
35918;BME280;22011;59.912;30.300;2022-08-06T02:38:39;101442.75;;;23.54;65.77
35918;BME280;22011;59.912;30.300;2022-08-06T02:41:11;101441.78;;;23.48;66.03
35918;BME280;22011;59.912;30.300;2022-08-06T02:43:50;101438.50;;;23.58;66.24
35918;BME280;22011;59.912;30.300;2022-08-06T02:46:23;101439.88;;;23.49;66.04
35918;BME280;22011;59.912;30.300;2022-08-06T02:48:58;101444.50;;;23.48;65.92
35918;BME280;22011;59.912;30.300;2022-08-06T02:51:32;101436.69;;;23.52;66.15
35918;BME280;22011;59.912;30.300;2022-08-06T02:54:05;101445.19;;;23.44;65.87
35918;BME280;22011;59.912;30.300;2022-08-06T02:56:34;101440.69;;;23.38;65.45
35918;BME280;22011;59.912;30.300;2022-08-06T02:59:05;101438.56;;;23.40;65.92
35918;BME280;22011;59.912;30.300;2022-08-06T03:01:37;101434.78;;;23.41;65.72
35918;BME280;22011;59.912;30.300;2022-08-06T03:04:06;101433.97;;;23.40;65.42
35918;BME280;22011;59.912;30.300;2022-08-06T03:06:35;101426.75;;;23.46;65.43
35918;BME280;22011;59.912;30.300;2022-08-06T03:09:04;101434.03;;;23.75;64.69
35918;BME280;22011;59.912;30.300;2022-08-06T03:11:34;101426.94;;;23.63;64.86
35918;BME280;22011;59.912;30.300;2022-08-06T03:14:05;101423.72;;;23.54;64.95
35918;BME280;22011;59.912;30.300;2022-08-06T03:16:35;101422.50;;;23.50;65.05
35918;BME280;22011;59.912;30.300;2022-08-06T03:19:03;101422.50;;;23.50;65.00
35918;BME280;22011;59.912;30.300;2022-08-06T03:21:32;101419.94;;;23.55;65.42
35918;BME280;22011;59.912;30.300;2022-08-06T03:24:01;101410.25;;;23.59;65.05
35918;BME280;22011;59.912;30.300;2022-08-06T03:26:30;101409.06;;;23.55;64.78
35918;BME280;22011;59.912;30.300;2022-08-06T03:29:00;101410.00;;;23.61;64.88
35918;BME280;22011;59.912;30.300;2022-08-06T03:31:30;101412.03;;;23.65;64.83
35918;BME280;22011;59.912;30.300;2022-08-06T03:33:58;101403.97;;;23.59;64.74
35918;BME280;22011;59.912;30.300;2022-08-06T03:36:27;101403.50;;;23.62;64.55
35918;BME280;22011;59.912;30.300;2022-08-06T03:38:58;101403.88;;;23.65;64.81
35918;BME280;22011;59.912;30.300;2022-08-06T03:41:29;101406.00;;;23.63;64.44
35918;BME280;22011;59.912;30.300;2022-08-06T03:43:57;101394.72;;;23.95;63.76
35918;BME280;22011;59.912;30.300;2022-08-06T03:46:26;101401.97;;;23.77;64.50
35918;BME280;22011;59.912;30.300;2022-08-06T03:48:59;101395.94;;;23.75;64.53
35918;BME280;22011;59.912;30.300;2022-08-06T03:51:29;101391.09;;;23.66;64.43
35918;BME280;22011;59.912;30.300;2022-08-06T03:53:59;101397.72;;;23.70;64.51
35918;BME280;22011;59.912;30.300;2022-08-06T03:56:27;101397.13;;;23.68;64.92
35918;BME280;22011;59.912;30.300;2022-08-06T03:58:58;101387.31;;;23.78;65.08
35918;BME280;22011;59.912;30.300;2022-08-06T04:01:27;101386.34;;;23.85;64.46
35918;BME280;22011;59.912;30.300;2022-08-06T04:03:59;101382.56;;;23.86;64.40
35918;BME280;22011;59.912;30.300;2022-08-06T04:06:27;101379.72;;;23.80;64.20
35918;BME280;22011;59.912;30.300;2022-08-06T04:08:57;101383.03;;;23.83;64.23
35918;BME280;22011;59.912;30.300;2022-08-06T04:11:27;101374.06;;;23.82;64.42
35918;BME280;22011;59.912;30.300;2022-08-06T04:13:55;101364.78;;;23.95;64.07
35918;BME280;22011;59.912;30.300;2022-08-06T04:16:23;101372.03;;;23.89;63.85
35918;BME280;22011;59.912;30.300;2022-08-06T04:18:51;101377.66;;;23.99;63.58
35918;BME280;22011;59.912;30.300;2022-08-06T04:21:24;101373.84;;;24.12;63.54
35918;BME280;22011;59.912;30.300;2022-08-06T04:23:52;101368.03;;;24.20;63.16
35918;BME280;22011;59.912;30.300;2022-08-06T04:26:22;101368.53;;;24.29;62.94
35918;BME280;22011;59.912;30.300;2022-08-06T04:28:52;101371.25;;;24.29;62.88
35918;BME280;22011;59.912;30.300;2022-08-06T04:31:22;101363.31;;;24.27;62.77
35918;BME280;22011;59.912;30.300;2022-08-06T04:33:51;101362.34;;;24.33;62.78
35918;BME280;22011;59.912;30.300;2022-08-06T04:36:23;101361.16;;;24.41;62.71
35918;BME280;22011;59.912;30.300;2022-08-06T04:38:51;101361.75;;;24.31;62.65
35918;BME280;22011;59.912;30.300;2022-08-06T04:41:19;101358.47;;;24.29;62.89
35918;BME280;22011;59.912;30.300;2022-08-06T04:43:47;101355.25;;;24.32;62.99
35918;BME280;22011;59.912;30.300;2022-08-06T04:46:15;101354.25;;;24.50;62.17
35918;BME280;22011;59.912;30.300;2022-08-06T04:48:43;101343.78;;;24.59;61.97
35918;BME280;22011;59.912;30.300;2022-08-06T04:51:11;101345.44;;;24.60;62.18
35918;BME280;22011;59.912;30.300;2022-08-06T04:53:41;101346.22;;;24.72;62.00
35918;BME280;22011;59.912;30.300;2022-08-06T04:56:09;101345.09;;;25.01;61.22
35918;BME280;22011;59.912;30.300;2022-08-06T04:58:36;101333.91;;;24.69;61.53
35918;BME280;22011;59.912;30.300;2022-08-06T05:01:04;101348.59;;;24.68;61.70
35918;BME280;22011;59.912;30.300;2022-08-06T05:03:32;101345.97;;;24.73;61.69
35918;BME280;22011;59.912;30.300;2022-08-06T05:06:03;101343.66;;;24.82;61.81
35918;BME280;22011;59.912;30.300;2022-08-06T05:08:36;101343.50;;;24.89;61.74
35918;BME280;22011;59.912;30.300;2022-08-06T05:11:12;101326.16;;;24.95;61.67
35918;BME280;22011;59.912;30.300;2022-08-06T05:13:43;101333.53;;;24.94;61.73
35918;BME280;22011;59.912;30.300;2022-08-06T05:16:13;101325.34;;;24.94;61.51
35918;BME280;22011;59.912;30.300;2022-08-06T05:18:44;101333.13;;;25.02;61.53
35918;BME280;22011;59.912;30.300;2022-08-06T05:21:18;101325.03;;;25.07;61.66
35918;BME280;22011;59.912;30.300;2022-08-06T05:23:50;101321.72;;;25.05;61.38
35918;BME280;22011;59.912;30.300;2022-08-06T05:26:21;101325.69;;;25.15;60.99
35918;BME280;22011;59.912;30.300;2022-08-06T05:28:49;101325.69;;;25.15;60.79
35918;BME280;22011;59.912;30.300;2022-08-06T05:31:28;101326.50;;;25.32;61.02
35918;BME280;22011;59.912;30.300;2022-08-06T05:33:55;101325.84;;;25.25;60.76
35918;BME280;22011;59.912;30.300;2022-08-06T05:36:23;101320.47;;;25.30;60.72
35918;BME280;22011;59.912;30.300;2022-08-06T05:38:50;101320.72;;;25.28;60.74
35918;BME280;22011;59.912;30.300;2022-08-06T05:41:18;101322.63;;;25.28;60.52
35918;BME280;22011;59.912;30.300;2022-08-06T05:43:47;101330.38;;;25.36;60.75
35918;BME280;22011;59.912;30.300;2022-08-06T05:46:17;101321.13;;;25.37;60.54
35918;BME280;22011;59.912;30.300;2022-08-06T05:48:53;101320.72;;;25.45;60.78
35918;BME280;22011;59.912;30.300;2022-08-06T05:51:27;101320.72;;;25.45;60.84
35918;BME280;22011;59.912;30.300;2022-08-06T05:54:03;101310.44;;;25.52;60.54
35918;BME280;22011;59.912;30.300;2022-08-06T05:56:37;101317.06;;;25.56;60.50
35918;BME280;22011;59.912;30.300;2022-08-06T05:59:10;101313.69;;;25.66;60.02
35918;BME280;22011;59.912;30.300;2022-08-06T06:01:40;101317.22;;;25.66;59.81
35918;BME280;22011;59.912;30.300;2022-08-06T06:04:07;101318.94;;;25.72;59.28
35918;BME280;22011;59.912;30.300;2022-08-06T06:06:35;101315.84;;;25.86;59.15
35918;BME280;22011;59.912;30.300;2022-08-06T06:09:03;101323.53;;;25.89;59.33
35918;BME280;22011;59.912;30.300;2022-08-06T06:11:31;101321.13;;;25.92;58.81
35918;BME280;22011;59.912;30.300;2022-08-06T06:13:59;101322.59;;;26.00;58.66
35918;BME280;22011;59.912;30.300;2022-08-06T06:16:32;101318.38;;;26.14;58.86
35918;BME280;22011;59.912;30.300;2022-08-06T06:19:09;101324.78;;;26.25;58.54
35918;BME280;22011;59.912;30.300;2022-08-06T06:21:52;101319.72;;;26.33;57.99
35918;BME280;22011;59.912;30.300;2022-08-06T06:24:26;101329.34;;;26.41;58.20
35918;BME280;22011;59.912;30.300;2022-08-06T06:26:59;101314.94;;;26.46;57.78
35918;BME280;22011;59.912;30.300;2022-08-06T06:29:37;101320.44;;;26.51;57.75
35918;BME280;22011;59.912;30.300;2022-08-06T06:32:15;101320.13;;;26.47;58.18
35918;BME280;22011;59.912;30.300;2022-08-06T06:34:51;101320.44;;;26.51;58.32
35918;BME280;22011;59.912;30.300;2022-08-06T06:37:29;101309.81;;;26.54;57.87
35918;BME280;22011;59.912;30.300;2022-08-06T06:40:10;101311.25;;;26.62;57.72
35918;BME280;22011;59.912;30.300;2022-08-06T06:42:45;101301.47;;;26.66;57.14
35918;BME280;22011;59.912;30.300;2022-08-06T06:45:24;101306.69;;;26.67;57.62
35918;BME280;22011;59.912;30.300;2022-08-06T06:47:58;101293.44;;;26.86;57.14
35918;BME280;22011;59.912;30.300;2022-08-06T06:50:31;101296.03;;;26.98;56.91
35918;BME280;22011;59.912;30.300;2022-08-06T06:53:00;101291.41;;;26.98;56.40
35918;BME280;22011;59.912;30.300;2022-08-06T06:55:31;101290.09;;;27.11;56.30
35918;BME280;22011;59.912;30.300;2022-08-06T06:58:11;101281.75;;;27.28;55.78
35918;BME280;22011;59.912;30.300;2022-08-06T07:00:40;101279.81;;;27.28;55.56
35918;BME280;22011;59.912;30.300;2022-08-06T07:03:11;101276.88;;;27.40;55.21
35918;BME280;22011;59.912;30.300;2022-08-06T07:05:41;101283.78;;;27.48;55.18
35918;BME280;22011;59.912;30.300;2022-08-06T07:08:11;101277.81;;;27.56;54.81
35918;BME280;22011;59.912;30.300;2022-08-06T07:10:41;101269.84;;;27.54;54.97
35918;BME280;22011;59.912;30.300;2022-08-06T07:13:10;101269.91;;;27.59;54.70
35918;BME280;22011;59.912;30.300;2022-08-06T07:15:39;101260.22;;;27.99;54.54
35918;BME280;22011;59.912;30.300;2022-08-06T07:18:07;101250.25;;;27.67;54.25
35918;BME280;22011;59.912;30.300;2022-08-06T07:20:37;101252.19;;;27.77;54.45
35918;BME280;22011;59.912;30.300;2022-08-06T07:23:07;101256.28;;;27.75;54.39
35918;BME280;22011;59.912;30.300;2022-08-06T07:25:37;101251.66;;;27.75;53.94
35918;BME280;22011;59.912;30.300;2022-08-06T07:28:08;101243.75;;;27.84;53.83
35918;BME280;22011;59.912;30.300;2022-08-06T07:30:38;101236.66;;;27.98;53.77
35918;BME280;22011;59.912;30.300;2022-08-06T07:33:07;101237.50;;;28.04;53.07
35918;BME280;22011;59.912;30.300;2022-08-06T07:35:40;101241.34;;;28.18;53.82
35918;BME280;22011;59.912;30.300;2022-08-06T07:38:09;101236.75;;;28.28;52.88
35918;BME280;22011;59.912;30.300;2022-08-06T07:40:40;101244.41;;;28.31;52.88
35918;BME280;22011;59.912;30.300;2022-08-06T07:43:12;101243.06;;;28.54;52.34
35918;BME280;22011;59.912;30.300;2022-08-06T07:45:40;101240.88;;;28.51;52.53
35918;BME280;22011;59.912;30.300;2022-08-06T07:48:10;101246.63;;;28.55;52.00
35918;BME280;22011;59.912;30.300;2022-08-06T07:50:42;101240.63;;;28.73;52.18
35918;BME280;22011;59.912;30.300;2022-08-06T07:53:12;101231.84;;;28.66;51.29
35918;BME280;22011;59.912;30.300;2022-08-06T07:55:40;101232.69;;;28.92;51.20
35918;BME280;22011;59.912;30.300;2022-08-06T07:58:10;101226.91;;;29.09;50.80
35918;BME280;22011;59.912;30.300;2022-08-06T08:00:39;101218.34;;;29.20;50.35
35918;BME280;22011;59.912;30.300;2022-08-06T08:03:08;101219.97;;;29.21;50.10
35918;BME280;22011;59.912;30.300;2022-08-06T08:05:55;101216.94;;;29.28;49.53
35918;BME280;22011;59.912;30.300;2022-08-06T08:08:41;101219.16;;;29.26;49.21
35918;BME280;22011;59.912;30.300;2022-08-06T08:11:10;101217.75;;;29.44;49.06
35918;BME280;22011;59.912;30.300;2022-08-06T08:13:41;101227.63;;;29.45;49.03
35918;BME280;22011;59.912;30.300;2022-08-06T08:16:12;101218.00;;;29.52;49.43
35918;BME280;22011;59.912;30.300;2022-08-06T08:18:40;101214.94;;;29.59;48.91
35918;BME280;22011;59.912;30.300;2022-08-06T08:21:10;101215.25;;;29.52;49.10
35918;BME280;22011;59.912;30.300;2022-08-06T08:23:39;101204.22;;;29.63;49.16
35918;BME280;22011;59.912;30.300;2022-08-06T08:26:07;101195.19;;;29.57;49.00
35918;BME280;22011;59.912;30.300;2022-08-06T08:28:35;101202.06;;;29.54;49.17
35918;BME280;22011;59.912;30.300;2022-08-06T08:31:03;101195.22;;;29.47;49.24
35918;BME280;22011;59.912;30.300;2022-08-06T08:33:32;101200.38;;;29.64;48.56
35918;BME280;22011;59.912;30.300;2022-08-06T08:36:01;101198.72;;;29.63;48.60
35918;BME280;22011;59.912;30.300;2022-08-06T08:38:32;101198.13;;;29.76;48.48
35918;BME280;22011;59.912;30.300;2022-08-06T08:41:00;101203.66;;;29.66;48.50
35918;BME280;22011;59.912;30.300;2022-08-06T08:43:35;101203.00;;;29.89;48.43
35918;BME280;22011;59.912;30.300;2022-08-06T08:46:04;101201.56;;;30.02;47.55
35918;BME280;22011;59.912;30.300;2022-08-06T08:48:35;101197.97;;;30.06;47.44
35918;BME280;22011;59.912;30.300;2022-08-06T08:51:04;101198.69;;;30.17;47.52
35918;BME280;22011;59.912;30.300;2022-08-06T08:53:37;101202.63;;;30.11;47.97
35918;BME280;22011;59.912;30.300;2022-08-06T08:56:06;101190.84;;;30.05;47.93
35918;BME280;22011;59.912;30.300;2022-08-06T08:58:34;101193.56;;;30.10;48.01
35918;BME280;22011;59.912;30.300;2022-08-06T09:01:05;101192.81;;;30.34;46.58
35918;BME280;22011;59.912;30.300;2022-08-06T09:03:35;101190.06;;;30.34;46.50
35918;BME280;22011;59.912;30.300;2022-08-06T09:06:03;101193.06;;;30.37;45.50
35918;BME280;22011;59.912;30.300;2022-08-06T09:08:31;101190.59;;;30.36;45.47
35918;BME280;22011;59.912;30.300;2022-08-06T09:11:00;101173.31;;;30.30;45.60
35918;BME280;22011;59.912;30.300;2022-08-06T09:13:29;101176.59;;;30.32;45.10
35918;BME280;22011;59.912;30.300;2022-08-06T09:15:57;101177.28;;;30.48;45.21
35918;BME280;22011;59.912;30.300;2022-08-06T09:18:25;101163.25;;;30.49;44.75
35918;BME280;22011;59.912;30.300;2022-08-06T09:20:53;101162.38;;;30.59;45.16
35918;BME280;22011;59.912;30.300;2022-08-06T09:23:20;101155.72;;;30.65;44.91
35918;BME280;22011;59.912;30.300;2022-08-06T09:25:49;101158.09;;;30.77;44.00
35918;BME280;22011;59.912;30.300;2022-08-06T09:28:30;101152.59;;;31.01;44.15
35918;BME280;22011;59.912;30.300;2022-08-06T09:31:01;101154.34;;;30.92;43.93
35918;BME280;22011;59.912;30.300;2022-08-06T09:33:30;101135.09;;;30.92;44.17
35918;BME280;22011;59.912;30.300;2022-08-06T09:35:59;101139.25;;;30.89;44.63
35918;BME280;22011;59.912;30.300;2022-08-06T09:38:27;101145.91;;;31.31;44.41
35918;BME280;22011;59.912;30.300;2022-08-06T09:41:09;101135.84;;;30.97;44.91
35918;BME280;22011;59.912;30.300;2022-08-06T09:43:39;101141.50;;;30.58;45.85
35918;BME280;22011;59.912;30.300;2022-08-06T09:46:08;101123.78;;;30.69;45.36
35918;BME280;22011;59.912;30.300;2022-08-06T09:48:35;101134.81;;;30.64;46.34
35918;BME280;22011;59.912;30.300;2022-08-06T09:51:03;101120.94;;;30.45;46.13
35918;BME280;22011;59.912;30.300;2022-08-06T09:53:31;101108.03;;;30.46;46.32
35918;BME280;22011;59.912;30.300;2022-08-06T09:55:59;101104.06;;;30.57;45.73
35918;BME280;22011;59.912;30.300;2022-08-06T09:58:31;101097.16;;;30.65;45.57
35918;BME280;22011;59.912;30.300;2022-08-06T10:01:15;101086.09;;;30.94;45.02
35918;BME280;22011;59.912;30.300;2022-08-06T10:03:43;101082.59;;;30.88;44.61
35918;BME280;22011;59.912;30.300;2022-08-06T10:06:14;101070.41;;;30.94;44.92
35918;BME280;22011;59.912;30.300;2022-08-06T10:08:42;101077.44;;;30.81;45.10
35918;BME280;22011;59.912;30.300;2022-08-06T10:11:10;101063.78;;;30.95;44.58
35918;BME280;22011;59.912;30.300;2022-08-06T10:13:38;101054.34;;;31.01;43.31
35918;BME280;22011;59.912;30.300;2022-08-06T10:16:18;101050.63;;;31.16;44.13
35918;BME280;22011;59.912;30.300;2022-08-06T10:18:47;101054.72;;;30.71;45.03
35918;BME280;22011;59.912;30.300;2022-08-06T10:21:17;101041.91;;;30.85;43.94
35918;BME280;22011;59.912;30.300;2022-08-06T10:23:46;101035.34;;;30.81;44.06
35918;BME280;22011;59.912;30.300;2022-08-06T10:26:18;101036.56;;;30.94;43.38
35918;BME280;22011;59.912;30.300;2022-08-06T10:28:48;101029.44;;;30.93;43.86
35918;BME280;22011;59.912;30.300;2022-08-06T10:31:18;101033.59;;;30.66;43.48
35918;BME280;22011;59.912;30.300;2022-08-06T10:33:50;101030.81;;;30.42;44.63
35918;BME280;22011;59.912;30.300;2022-08-06T10:36:20;101025.06;;;30.39;44.36
35918;BME280;22011;59.912;30.300;2022-08-06T10:38:51;101014.66;;;30.36;44.40
35918;BME280;22011;59.912;30.300;2022-08-06T10:41:21;101021.84;;;30.32;44.45
35918;BME280;22011;59.912;30.300;2022-08-06T10:43:53;101008.81;;;30.42;44.71
35918;BME280;22011;59.912;30.300;2022-08-06T10:46:23;101008.69;;;30.52;43.79
35918;BME280;22011;59.912;30.300;2022-08-06T10:48:51;101007.28;;;30.55;43.60
35918;BME280;22011;59.912;30.300;2022-08-06T10:51:20;101020.22;;;30.54;43.85
35918;BME280;22011;59.912;30.300;2022-08-06T10:53:49;101004.41;;;30.70;43.84
35918;BME280;22011;59.912;30.300;2022-08-06T10:56:17;100993.44;;;30.65;44.42
35918;BME280;22011;59.912;30.300;2022-08-06T10:58:44;100989.41;;;30.81;44.01
35918;BME280;22011;59.912;30.300;2022-08-06T11:01:21;101001.38;;;30.90;44.21
35918;BME280;22011;59.912;30.300;2022-08-06T11:04:12;100988.69;;;30.95;43.83
35918;BME280;22011;59.912;30.300;2022-08-06T11:10:14;100979.94;;;30.69;44.32
35918;BME280;22011;59.912;30.300;2022-08-06T11:12:50;100959.19;;;30.52;44.42
35918;BME280;22011;59.912;30.300;2022-08-06T11:15:19;100959.16;;;30.57;44.38
35918;BME280;22011;59.912;30.300;2022-08-06T11:17:49;100969.97;;;30.73;43.80
35918;BME280;22011;59.912;30.300;2022-08-06T11:20:40;100955.06;;;30.98;43.45
35918;BME280;22011;59.912;30.300;2022-08-06T11:23:25;100961.00;;;30.86;43.67
35918;BME280;22011;59.912;30.300;2022-08-06T11:25:54;100956.69;;;30.56;43.80
35918;BME280;22011;59.912;30.300;2022-08-06T11:31:34;100960.78;;;30.82;44.18
35918;BME280;22011;59.912;30.300;2022-08-06T11:34:03;100962.63;;;30.68;44.11
35918;BME280;22011;59.912;30.300;2022-08-06T11:36:45;100955.47;;;30.67;44.12
35918;BME280;22011;59.912;30.300;2022-08-06T11:39:14;100949.25;;;30.33;44.61
35918;BME280;22011;59.912;30.300;2022-08-06T11:41:50;100956.16;;;30.30;44.82
35918;BME280;22011;59.912;30.300;2022-08-06T11:44:18;100951.22;;;30.08;44.83
35918;BME280;22011;59.912;30.300;2022-08-06T11:46:47;100945.88;;;29.88;45.94
35918;BME280;22011;59.912;30.300;2022-08-06T11:49:20;100931.09;;;29.84;46.16
35918;BME280;22011;59.912;30.300;2022-08-06T11:51:52;100939.72;;;29.72;45.97
35918;BME280;22011;59.912;30.300;2022-08-06T11:54:21;100948.31;;;29.60;46.34
35918;BME280;22011;59.912;30.300;2022-08-06T11:57:20;100941.41;;;29.68;46.74
35918;BME280;22011;59.912;30.300;2022-08-06T12:00:04;100946.03;;;29.73;45.88
35918;BME280;22011;59.912;30.300;2022-08-06T12:02:52;100941.03;;;29.46;47.26
35918;BME280;22011;59.912;30.300;2022-08-06T12:05:34;100938.56;;;29.44;47.42
35918;BME280;22011;59.912;30.300;2022-08-06T12:08:23;100942.97;;;29.40;47.60
35918;BME280;22011;59.912;30.300;2022-08-06T12:11:30;100951.81;;;29.32;47.78
35918;BME280;22011;59.912;30.300;2022-08-06T12:13:59;100969.59;;;29.01;48.51
35918;BME280;22011;59.912;30.300;2022-08-06T12:16:35;100979.44;;;29.07;48.75
35918;BME280;22011;59.912;30.300;2022-08-06T12:19:04;100962.59;;;28.64;46.99
35918;BME280;22011;59.912;30.300;2022-08-06T12:21:32;100958.69;;;28.85;46.66
35918;BME280;22011;59.912;30.300;2022-08-06T12:24:01;100955.94;;;28.06;47.42
35918;BME280;22011;59.912;30.300;2022-08-06T12:26:31;100949.38;;;27.71;48.15
35918;BME280;22011;59.912;30.300;2022-08-06T12:29:01;100941.97;;;27.56;49.11
35918;BME280;22011;59.912;30.300;2022-08-06T12:31:33;100955.38;;;27.48;49.40
35918;BME280;22011;59.912;30.300;2022-08-06T12:34:01;100935.38;;;27.32;50.02
35918;BME280;22011;59.912;30.300;2022-08-06T12:36:30;100935.09;;;27.18;50.73
35918;BME280;22011;59.912;30.300;2022-08-06T12:39:01;100931.53;;;27.13;51.03
35918;BME280;22011;59.912;30.300;2022-08-06T12:41:34;100940.56;;;27.13;51.58
35918;BME280;22011;59.912;30.300;2022-08-06T12:44:02;100963.25;;;27.03;51.70
35918;BME280;22011;59.912;30.300;2022-08-06T12:46:30;100988.41;;;27.00;52.29
35918;BME280;22011;59.912;30.300;2022-08-06T12:48:58;101021.75;;;26.97;52.64
35918;BME280;22011;59.912;30.300;2022-08-06T12:51:27;101132.03;;;26.71;54.64
35918;BME280;22011;59.912;30.300;2022-08-06T12:53:58;101162.22;;;26.22;58.21
35918;BME280;22011;59.912;30.300;2022-08-06T12:56:29;101194.78;;;25.53;65.47
35918;BME280;22011;59.912;30.300;2022-08-06T12:58:57;101178.41;;;24.76;69.68
35918;BME280;22011;59.912;30.300;2022-08-06T13:01:28;101224.28;;;24.34;72.09
35918;BME280;22011;59.912;30.300;2022-08-06T13:03:58;101236.78;;;23.90;73.58
35918;BME280;22011;59.912;30.300;2022-08-06T13:06:27;101212.75;;;23.58;73.85
35918;BME280;22011;59.912;30.300;2022-08-06T13:08:57;101215.56;;;23.40;73.44